Randall, Kansas
Current Conditions -  °F | °C
As of 8:55 AM on Thursday 30 Oct 2014 (Local Time) from KCNK Reporting Station
Clear Clear  
Wind Chill: 45°   Ceiling: Unl
Heat Index: 49°   Visibility: 10mi
Dew Point: 37°   Wind: 10mph
Humidity: 64%   Direction: 320°NW
Pressure: 30.11"   Gusts: NA
Location:  39.64°N, 98.04°W
Report Text: KCNK 301355Z AUTO 32009KT 10SM CLR 09/03 A3011 RMK AO2 SLP196 T00940028
Loading
Personal Weather Stations






























Interactive Weather Map
Tropical Storm Tracking
New forecast layout! Learn more

10-Day Weather Forecast

Advertisements
Track Severe Weather on mobile